Time;durP1;ratioP1;P1;durP2;ratioP2;P2;SDS_P1;SDS_P2;PMS_P1;PMS_P2;Temp;Humidity;BMP_temperature;BMP_pressure;BME280_temperature;BME280_humidity;BME280_pressure;Samples;Min_cycle;Max_cycle;Signal;HPM_P1;HPM_P2
2022/10/20 00:01:22;;;;;;;11.68;9.15;;;;;;;11.42;82.05;101536.94;5044092;28;20048;-58
2022/10/20 00:03:48;;;;;;;11.18;9.23;;;;;;;11.40;82.55;101532.66;5034499;28;20025;-58
2022/10/20 00:06:16;;;;;;;13.63;9.07;;;;;;;11.35;82.53;101528.44;5047975;28;20049;-58
2022/10/20 00:08:44;;;;;;;14.65;9.52;;;;;;;11.32;82.65;101519.75;5048368;28;20387;-58
2022/10/20 00:11:12;;;;;;;14.50;9.85;;;;;;;11.32;83.11;101519.75;5051150;28;20113;-58
2022/10/20 00:13:39;;;;;;;14.48;10.63;;;;;;;11.21;83.74;101516.84;5038905;28;20388;-58
2022/10/20 00:16:05;;;;;;;14.88;10.02;;;;;;;11.22;83.76;101530.06;5038066;28;20109;-58
2022/10/20 00:18:31;;;;;;;13.60;9.95;;;;;;;11.17;83.71;101526.78;5033813;28;20033;-58
2022/10/20 00:20:57;;;;;;;12.13;9.90;;;;;;;11.10;84.04;101522.75;5053618;28;20095;-59
2022/10/20 00:23:23;;;;;;;17.20;10.82;;;;;;;11.08;84.47;101522.81;5048541;28;20043;-58
2022/10/20 00:26:03;;;;;;;19.58;11.00;;;;;;;10.98;84.40;101499.47;5047811;28;20033;-58
2022/10/20 00:28:28;;;;;;;15.07;10.70;;;;;;;11.14;84.51;101524.28;5052430;28;20036;-58
2022/10/20 00:30:56;;;;;;;14.60;11.23;;;;;;;11.09;84.86;101519.22;5036210;28;20044;-58
2022/10/20 00:33:25;;;;;;;15.88;11.00;;;;;;;11.14;85.06;101505.66;5053461;28;20033;-58
2022/10/20 00:35:51;;;;;;;14.73;11.27;;;;;;;11.12;84.93;101500.41;5051962;28;20383;-58
2022/10/20 00:38:16;;;;;;;19.35;11.27;;;;;;;11.11;84.91;101504.00;5036474;28;20033;-58
2022/10/20 00:40:41;;;;;;;16.17;11.23;;;;;;;11.17;85.33;101496.63;5045908;28;20077;-58
2022/10/20 00:43:12;;;;;;;14.32;11.77;;;;;;;11.05;85.71;101493.69;5052388;28;20408;-57
2022/10/20 00:45:38;;;;;;;14.40;11.40;;;;;;;10.98;85.84;101484.34;5041269;28;20149;-58
2022/10/20 00:48:17;;;;;;;15.93;11.63;;;;;;;10.96;86.33;101475.56;5034066;28;20044;-58
2022/10/20 00:50:48;;;;;;;14.47;11.60;;;;;;;10.90;86.11;101471.44;5033223;28;20361;-58
2022/10/20 00:53:15;;;;;;;16.02;10.95;;;;;;;10.97;86.45;101484.41;5033760;28;20397;-58
2022/10/20 00:55:44;;;;;;;18.38;11.50;;;;;;;10.93;86.81;101491.72;5043291;28;20044;-58
2022/10/20 00:58:12;;;;;;;14.85;11.40;;;;;;;10.94;86.69;101490.75;5052866;28;20040;-58
2022/10/20 01:00:39;;;;;;;21.80;12.40;;;;;;;10.88;87.02;101491.97;5053674;28;20036;-58
2022/10/20 01:03:07;;;;;;;18.70;12.63;;;;;;;10.86;87.56;101500.97;5051942;28;20479;-58
2022/10/20 01:05:33;;;;;;;18.70;12.02;;;;;;;10.98;87.21;101479.03;5042449;28;20033;-58
2022/10/20 01:08:00;;;;;;;15.05;11.75;;;;;;;10.89;87.22;101474.19;5050312;28;20043;-58
2022/10/20 01:10:30;;;;;;;16.83;12.32;;;;;;;10.89;87.42;101461.75;5052173;28;20037;-58
2022/10/20 01:13:03;;;;;;;15.52;12.82;;;;;;;10.96;87.59;101454.28;5052884;28;20064;-58
2022/10/20 01:15:41;;;;;;;25.02;13.90;;;;;;;10.97;87.58;101442.72;5041258;28;20515;-58
2022/10/20 01:18:10;;;;;;;20.05;12.57;;;;;;;11.00;88.25;101436.31;5053690;28;20029;-58
2022/10/20 01:20:54;;;;;;;19.27;12.85;;;;;;;10.96;87.75;101430.31;5050983;28;20431;-58
2022/10/20 01:23:42;;;;;;;17.98;13.45;;;;;;;10.94;88.32;101429.53;5032315;28;20041;-58
2022/10/20 01:26:22;;;;;;;17.70;12.98;;;;;;;10.89;88.67;101419.16;5037462;28;20053;-58
2022/10/20 01:28:50;;;;;;;21.02;13.52;;;;;;;10.91;88.32;101419.06;5049767;28;20043;-58
2022/10/20 01:31:31;;;;;;;19.90;14.23;;;;;;;10.93;88.65;101401.22;5036129;28;20040;-58
2022/10/20 01:34:18;;;;;;;19.88;13.80;;;;;;;10.89;89.48;101413.84;5031547;28;20480;-58
2022/10/20 01:36:54;;;;;;;17.95;13.73;;;;;;;10.88;89.24;101413.91;5048502;28;20413;-58
2022/10/20 01:39:29;;;;;;;17.45;13.43;;;;;;;10.88;89.37;101411.25;5051700;28;20033;-57
2022/10/20 01:42:01;;;;;;;18.88;13.88;;;;;;;10.85;89.50;101414.09;5046361;28;20021;-57
2022/10/20 01:44:29;;;;;;;22.33;13.27;;;;;;;10.88;89.24;101417.47;5039002;28;20025;-57
2022/10/20 01:46:57;;;;;;;20.23;14.23;;;;;;;10.85;89.42;101422.06;5032943;28;20025;-57
2022/10/20 01:49:24;;;;;;;17.15;14.00;;;;;;;10.76;89.85;101412.78;5032398;28;20041;-57
2022/10/20 01:51:50;;;;;;;19.50;15.30;;;;;;;10.76;89.80;101423.44;5033375;28;20173;-57
2022/10/20 01:54:21;;;;;;;18.63;14.48;;;;;;;10.74;90.36;101417.34;5082569;28;20122;-58
2022/10/20 01:57:11;;;;;;;17.80;14.80;;;;;;;10.83;89.67;101414.19;5031537;28;20022;-57
2022/10/20 01:59:52;;;;;;;22.85;14.98;;;;;;;10.90;89.54;101412.03;5042864;28;20029;-57
2022/10/20 02:03:05;;;;;;;21.50;14.82;;;;;;;10.91;89.33;101421.72;5047766;28;20094;-57
2022/10/20 02:06:02;;;;;;;21.00;15.00;;;;;;;10.87;90.05;101428.19;5040017;28;20495;-57
2022/10/20 02:08:36;;;;;;;18.52;15.38;;;;;;;10.90;89.81;101402.25;5041678;28;20056;-57
2022/10/20 02:11:04;;;;;;;18.35;14.82;;;;;;;10.91;90.02;101393.34;5032308;28;20029;-57
2022/10/20 02:13:31;;;;;;;18.90;14.77;;;;;;;10.86;90.07;101386.56;5033508;28;20033;-58
2022/10/20 02:16:00;;;;;;;19.95;15.23;;;;;;;10.95;89.68;101394.03;5051031;28;20104;-57
2022/10/20 02:18:32;;;;;;;20.77;15.93;;;;;;;10.96;89.54;101390.41;5052213;28;20037;-57
2022/10/20 02:21:01;;;;;;;21.25;14.70;;;;;;;10.96;89.95;101381.56;5044248;28;20029;-57
2022/10/20 02:23:30;;;;;;;22.40;14.82;;;;;;;10.88;89.47;101382.88;5031902;28;20033;-57
2022/10/20 02:25:58;;;;;;;16.17;13.50;;;;;;;10.93;88.92;101379.06;5045083;28;20013;-57
2022/10/20 02:28:25;;;;;;;20.05;13.88;;;;;;;10.89;89.21;101370.41;5051759;28;20029;-58
2022/10/20 02:30:51;;;;;;;19.73;15.32;;;;;;;10.84;88.52;101359.16;5050859;28;20476;-58
2022/10/20 02:33:17;;;;;;;16.48;13.10;;;;;;;10.75;88.48;101346.38;5034051;28;20037;-58
2022/10/20 02:35:50;;;;;;;25.27;14.40;;;;;;;10.81;88.22;101349.53;5046239;28;20026;-58
2022/10/20 02:38:18;;;;;;;17.67;14.13;;;;;;;10.78;88.37;101339.06;5050320;28;20025;-57
2022/10/20 02:40:43;;;;;;;17.15;13.95;;;;;;;10.71;88.51;101328.84;5037561;28;20033;-57
2022/10/20 02:43:09;;;;;;;19.52;14.13;;;;;;;10.69;88.51;101328.94;5030333;28;20044;-57
2022/10/20 02:45:37;;;;;;;19.92;14.60;;;;;;;10.66;88.10;101323.81;5066840;28;20085;-58
2022/10/20 02:48:06;;;;;;;24.77;14.95;;;;;;;10.60;88.64;101318.81;5067374;28;20088;-58
2022/10/20 02:50:31;;;;;;;20.80;14.70;;;;;;;10.61;88.83;101305.41;5041073;28;20037;-57
2022/10/20 02:52:59;;;;;;;20.55;15.23;;;;;;;10.61;89.11;101310.75;5067425;28;20086;-58
2022/10/20 02:55:25;;;;;;;17.55;14.93;;;;;;;10.54;89.23;101304.06;5041416;28;20400;-57
2022/10/20 02:57:52;;;;;;;21.10;15.77;;;;;;;10.56;89.42;101304.84;5047534;28;20021;-58
2022/10/20 03:00:20;;;;;;;20.77;15.57;;;;;;;10.56;89.44;101282.69;5048223;28;20040;-58
2022/10/20 03:02:50;;;;;;;18.00;14.55;;;;;;;10.58;89.29;101292.28;5051590;28;20024;-58
2022/10/20 03:05:17;;;;;;;25.20;15.63;;;;;;;10.63;89.75;101286.72;5049626;28;21312;-58
2022/10/20 03:07:43;;;;;;;20.75;16.50;;;;;;;10.56;89.88;101285.34;5032211;28;20056;-58
2022/10/20 03:10:08;;;;;;;19.02;14.65;;;;;;;10.59;89.80;101277.19;5046287;28;20108;-58
2022/10/20 03:12:36;;;;;;;20.95;16.83;;;;;;;10.62;90.14;101277.03;5032921;28;20496;-58
2022/10/20 03:15:01;;;;;;;19.55;15.73;;;;;;;10.63;90.02;101271.63;5078324;28;20045;-58
2022/10/20 03:17:27;;;;;;;20.60;16.15;;;;;;;10.62;90.33;101263.75;5076712;28;20456;-59
2022/10/20 03:19:52;;;;;;;21.02;17.08;;;;;;;10.60;90.32;101274.47;5049952;28;20051;-58
2022/10/20 03:22:17;;;;;;;22.10;16.85;;;;;;;10.57;90.58;101269.31;5033547;28;20040;-58
2022/10/20 03:24:43;;;;;;;24.65;16.75;;;;;;;10.55;91.33;101257.03;5049059;28;20387;-58
2022/10/20 03:27:08;;;;;;;19.95;16.83;;;;;;;10.59;91.54;101262.13;5082310;28;20029;-58
2022/10/20 03:29:34;;;;;;;22.88;18.15;;;;;;;10.59;91.65;101262.13;5067414;28;20033;-58
2022/10/20 03:31:59;;;;;;;28.13;18.33;;;;;;;10.55;92.16;101257.91;5051504;28;20039;-58
2022/10/20 03:34:24;;;;;;;22.55;17.55;;;;;;;10.59;91.98;101250.59;5077686;28;20041;-58
2022/10/20 03:36:50;;;;;;;27.02;17.42;;;;;;;10.58;92.13;101254.22;5054651;28;20036;-58
2022/10/20 03:39:17;;;;;;;20.60;16.88;;;;;;;10.61;92.13;101254.03;5049941;28;20163;-58
2022/10/20 03:41:42;;;;;;;22.70;18.48;;;;;;;10.59;92.10;101243.50;5031198;28;20041;-58
2022/10/20 03:44:09;;;;;;;21.80;17.83;;;;;;;10.65;92.39;101244.94;5066743;28;20107;-58
2022/10/20 03:46:35;;;;;;;29.48;17.60;;;;;;;10.67;92.22;101246.56;5040819;28;20037;-58
2022/10/20 03:49:00;;;;;;;23.33;18.23;;;;;;;10.66;92.44;101244.00;5052897;28;20045;-58
2022/10/20 03:51:25;;;;;;;25.25;17.38;;;;;;;10.64;92.33;101228.09;5045480;28;20120;-59
2022/10/20 03:53:51;;;;;;;21.77;17.85;;;;;;;10.75;91.87;101224.00;5038401;28;20041;-58
2022/10/20 03:56:18;;;;;;;24.48;19.20;;;;;;;10.72;92.45;101218.84;5040612;28;20083;-58
2022/10/20 03:58:44;;;;;;;26.95;18.17;;;;;;;10.67;92.07;101214.63;5045182;28;20033;-58
2022/10/20 04:01:15;;;;;;;24.88;18.33;;;;;;;10.66;92.63;101230.69;5047637;28;20037;-58
2022/10/20 04:03:41;;;;;;;25.27;19.23;;;;;;;10.75;93.08;101234.63;5034665;28;20029;-58
2022/10/20 04:06:07;;;;;;;23.98;19.55;;;;;;;10.78;93.28;101224.66;5028281;28;20111;-58
2022/10/20 04:08:32;;;;;;;24.38;18.90;;;;;;;10.78;93.56;101223.81;5053297;28;20106;-58
2022/10/20 04:10:58;;;;;;;27.27;20.05;;;;;;;10.78;93.49;101222.00;5053760;28;20380;-58
2022/10/20 04:13:24;;;;;;;29.88;19.63;;;;;;;10.81;93.75;101213.00;5051132;28;20032;-58
2022/10/20 04:15:49;;;;;;;25.67;18.33;;;;;;;10.80;94.23;101220.13;5044750;28;20037;-57
2022/10/20 04:18:14;;;;;;;26.88;19.42;;;;;;;10.83;94.28;101206.63;5034703;28;20099;-58
2022/10/20 04:20:40;;;;;;;26.08;20.15;;;;;;;10.91;94.44;101207.06;5042139;28;20116;-58
2022/10/20 04:23:05;;;;;;;26.63;20.15;;;;;;;10.88;94.30;101198.38;5037318;28;20477;-58
2022/10/20 04:25:30;;;;;;;26.75;19.98;;;;;;;10.89;94.75;101192.97;5032843;28;20029;-58
2022/10/20 04:27:58;;;;;;;24.80;20.02;;;;;;;10.93;94.58;101195.44;5053023;28;20044;-58
2022/10/20 04:30:23;;;;;;;27.73;20.30;;;;;;;10.96;94.60;101185.47;5049567;28;20154;-58
2022/10/20 04:32:48;;;;;;;27.52;19.65;;;;;;;10.98;95.27;101180.94;5034577;28;20033;-58
2022/10/20 04:35:14;;;;;;;24.75;19.52;;;;;;;11.05;94.83;101186.72;5036061;28;20025;-58
2022/10/20 04:37:43;;;;;;;28.42;19.25;;;;;;;11.08;94.55;101190.06;5052448;28;20040;-58
2022/10/20 04:40:09;;;;;;;27.40;19.27;;;;;;;10.99;94.87;101174.66;5052920;28;20036;-57
2022/10/20 04:42:34;;;;;;;26.83;19.65;;;;;;;11.01;95.22;101178.06;5052049;28;20033;-57
2022/10/20 04:45:02;;;;;;;26.83;19.00;;;;;;;11.01;95.65;101186.06;5051871;28;20117;-57
2022/10/20 04:47:32;;;;;;;26.80;19.27;;;;;;;11.02;95.55;101173.59;5051159;28;20384;-57
2022/10/20 04:49:57;;;;;;;;;;;;;;;11.08;93.98;101163.44;5053781;28;20032;-58
2022/10/20 04:52:22;;;;;;;26.83;18.70;;;;;;;11.08;94.74;101160.78;5035666;28;19920;-57
2022/10/20 04:54:48;;;;;;;24.48;18.70;;;;;;;11.06;94.83;101154.72;5034676;28;20086;-58
2022/10/20 04:57:16;;;;;;;23.95;18.60;;;;;;;11.08;95.27;101152.78;5040478;28;20396;-58
2022/10/20 04:59:41;;;;;;;26.08;19.65;;;;;;;11.06;95.15;101157.38;5064744;28;20112;-57
2022/10/20 05:02:07;;;;;;;26.30;18.75;;;;;;;11.07;95.06;101153.75;5080491;28;20175;-57
2022/10/20 05:04:32;;;;;;;24.88;18.58;;;;;;;11.03;95.40;101149.56;5032088;28;20040;-57
2022/10/20 05:06:57;;;;;;;27.35;18.92;;;;;;;11.09;95.21;101164.31;5033832;28;20053;-58
2022/10/20 05:09:23;;;;;;;24.92;19.65;;;;;;;11.06;95.49;101167.13;5065655;28;20068;-58
2022/10/20 05:11:48;;;;;;;20.15;17.35;;;;;;;11.01;95.21;101169.25;5048807;28;20029;-58
2022/10/20 05:14:16;;;;;;;31.63;19.65;;;;;;;11.04;95.48;101166.41;5065203;28;20416;-58
2022/10/20 05:16:43;;;;;;;24.05;19.08;;;;;;;11.03;95.22;101144.25;5033049;28;20028;-58
2022/10/20 05:19:10;;;;;;;28.05;19.73;;;;;;;11.02;95.34;101117.72;5039509;28;20094;-58
2022/10/20 05:21:36;;;;;;;26.13;18.35;;;;;;;11.00;95.06;101112.50;5049319;28;20564;-58
2022/10/20 05:24:03;;;;;;;23.67;18.52;;;;;;;11.11;95.18;101133.13;5053101;28;20049;-58
2022/10/20 05:26:33;;;;;;;24.90;18.10;;;;;;;11.06;95.10;101144.06;5050258;28;20454;-58
2022/10/20 05:29:00;;;;;;;23.67;17.85;;;;;;;11.02;94.94;101147.84;5034339;28;20029;-58
2022/10/20 05:31:26;;;;;;;27.15;19.38;;;;;;;10.91;95.60;101127.22;5040947;28;20063;-58
2022/10/20 05:33:54;;;;;;;22.23;18.60;;;;;;;11.00;95.33;101146.22;5039138;28;20107;-57
2022/10/20 05:36:25;;;;;;;24.17;18.42;;;;;;;10.97;95.30;101152.59;5045435;28;20025;-58
2022/10/20 05:38:53;;;;;;;25.80;19.17;;;;;;;10.97;95.39;101136.63;5037338;28;20028;-57
2022/10/20 05:41:21;;;;;;;25.05;18.73;;;;;;;10.98;95.10;101118.88;5065112;28;20034;-58
2022/10/20 05:43:52;;;;;;;27.13;18.80;;;;;;;10.98;95.43;101125.03;5032972;28;20060;-58
2022/10/20 05:46:18;;;;;;;23.20;18.38;;;;;;;10.91;96.22;101113.03;5042486;28;20376;-57
2022/10/20 05:48:45;;;;;;;29.98;18.98;;;;;;;10.94;95.80;101139.47;5065052;28;20025;-57
2022/10/20 05:51:17;;;;;;;27.42;18.92;;;;;;;10.85;96.40;101140.88;5032498;28;20029;-57
2022/10/20 05:53:43;;;;;;;26.52;19.45;;;;;;;10.84;96.62;101133.84;5032976;28;20029;-58
2022/10/20 05:56:11;;;;;;;27.63;18.92;;;;;;;10.86;96.70;101137.28;5050421;28;20046;-57
2022/10/20 05:58:40;;;;;;;29.08;19.77;;;;;;;10.88;96.68;101138.03;5051474;28;20078;-57
2022/10/20 06:01:19;;;;;;;25.52;19.20;;;;;;;10.86;96.48;101139.09;5052468;28;20102;-58
2022/10/20 06:03:56;;;;;;;25.40;19.42;;;;;;;10.89;96.80;101136.22;5050439;28;20021;-58
2022/10/20 06:06:24;;;;;;;21.92;18.40;;;;;;;10.92;96.47;101133.38;5049233;28;20037;-57
2022/10/20 06:08:50;;;;;;;27.42;19.02;;;;;;;10.88;96.82;101132.72;5047872;28;20033;-57
2022/10/20 06:11:17;;;;;;;25.92;19.35;;;;;;;10.89;96.97;101131.75;5033979;28;20032;-57
2022/10/20 06:13:42;;;;;;;25.58;18.63;;;;;;;10.96;96.47;101124.25;5041589;28;20123;-57
2022/10/20 06:16:11;;;;;;;26.27;19.35;;;;;;;10.93;96.73;101135.09;5050798;28;20047;-57
2022/10/20 06:18:41;;;;;;;30.25;18.88;;;;;;;11.00;96.61;101132.91;5049805;28;20061;-57
2022/10/20 06:21:16;;;;;;;25.23;19.70;;;;;;;10.99;96.52;101140.03;5037445;28;20020;-57
2022/10/20 06:23:41;;;;;;;27.33;19.25;;;;;;;10.98;96.30;101135.69;5051726;28;20033;-57
2022/10/20 06:26:10;;;;;;;29.25;18.60;;;;;;;10.95;96.57;101146.50;5032507;28;20036;-57
2022/10/20 06:28:37;;;;;;;24.58;19.38;;;;;;;11.00;96.80;101144.44;5050422;28;20078;-57
2022/10/20 06:31:17;;;;;;;32.45;18.98;;;;;;;11.03;96.59;101130.06;5051901;28;20494;-57
2022/10/20 06:33:45;;;;;;;25.02;18.85;;;;;;;11.06;96.87;101143.19;5049501;28;20025;-56
2022/10/20 06:36:14;;;;;;;31.08;19.40;;;;;;;11.05;96.91;101128.16;5051350;28;20027;-57
2022/10/20 06:38:40;;;;;;;27.35;19.75;;;;;;;11.02;96.73;101115.91;5051792;28;20036;-57
2022/10/20 06:41:08;;;;;;;26.13;18.48;;;;;;;11.06;97.12;101130.75;5051045;28;20020;-56
2022/10/20 06:43:33;;;;;;;23.80;19.63;;;;;;;11.08;96.87;101120.84;5049828;28;20033;-56
2022/10/20 06:46:04;;;;;;;26.23;18.92;;;;;;;11.14;96.78;101128.47;5049698;28;20036;-57
2022/10/20 06:48:31;;;;;;;30.92;20.20;;;;;;;11.16;96.68;101125.72;5051473;28;20037;-56
2022/10/20 06:51:00;;;;;;;24.42;18.95;;;;;;;11.16;96.24;101115.06;5049521;28;20082;-56
2022/10/20 06:53:26;;;;;;;25.10;19.05;;;;;;;11.21;95.98;101120.97;5051559;28;20078;-56
2022/10/20 06:56:06;;;;;;;26.88;18.65;;;;;;;11.25;95.77;101125.16;5051479;28;20029;-57
2022/10/20 06:58:34;;;;;;;24.05;19.23;;;;;;;11.26;95.84;101108.22;5051223;28;20049;-57
2022/10/20 07:01:36;;;;;;;26.27;17.90;;;;;;;11.31;95.37;101098.16;5051209;28;20387;-57
2022/10/20 07:04:06;;;;;;;24.15;18.38;;;;;;;11.33;95.44;101096.25;5049341;28;20087;-57
2022/10/20 07:06:40;;;;;;;25.40;18.33;;;;;;;11.30;95.55;101092.94;5037091;28;20052;-57
2022/10/20 07:09:07;;;;;;;26.73;18.00;;;;;;;11.32;95.78;101112.31;5036005;28;20040;-57
2022/10/20 07:11:35;;;;;;;24.27;17.80;;;;;;;11.26;95.66;101107.38;5031287;28;20022;-57
2022/10/20 07:14:01;;;;;;;21.80;18.13;;;;;;;11.32;95.21;101112.31;5031341;28;20021;-57
2022/10/20 07:16:31;;;;;;;22.13;17.98;;;;;;;11.34;95.72;101121.06;5033133;28;20079;-57
2022/10/20 07:18:58;;;;;;;27.48;18.63;;;;;;;11.36;95.50;101112.03;5050360;28;20408;-57
2022/10/20 07:21:25;;;;;;;24.25;18.17;;;;;;;11.36;95.55;101109.38;5048089;28;20502;-57
2022/10/20 07:23:54;;;;;;;23.75;17.45;;;;;;;11.45;94.96;101112.44;5054293;28;20021;-57
2022/10/20 07:26:25;;;;;;;23.00;17.92;;;;;;;11.48;94.61;101112.22;5055323;28;20111;-57
2022/10/20 07:28:55;;;;;;;24.42;18.67;;;;;;;11.49;94.99;101108.59;5045632;28;20032;-57
2022/10/20 07:31:24;;;;;;;19.83;17.73;;;;;;;11.52;94.92;101117.25;5051945;28;20045;-57
2022/10/20 07:33:52;;;;;;;24.63;19.02;;;;;;;11.54;94.49;101118.03;5054341;28;20052;-57
2022/10/20 07:36:23;;;;;;;23.20;18.00;;;;;;;11.54;94.38;101126.00;5086391;28;20116;-57
2022/10/20 07:38:49;;;;;;;27.27;19.10;;;;;;;11.57;94.39;101128.47;5054015;28;20021;-57
2022/10/20 07:41:17;;;;;;;22.70;18.80;;;;;;;11.62;94.17;101116.66;5054466;28;20094;-57
2022/10/20 07:43:43;;;;;;;23.58;19.55;;;;;;;11.61;94.43;101118.47;5053301;28;20522;-57
2022/10/20 07:46:12;;;;;;;27.73;19.75;;;;;;;11.64;94.27;101120.94;5051826;28;20033;-57
2022/10/20 07:48:37;;;;;;;21.20;16.77;;;;;;;11.71;93.60;101116.97;5054343;28;20029;-57
2022/10/20 07:51:25;;;;;;;22.95;17.55;;;;;;;11.81;93.32;101115.41;5051858;28;20548;-56
2022/10/20 07:53:52;;;;;;;24.35;18.80;;;;;;;11.87;92.93;101116.00;5050344;28;20026;-57
2022/10/20 07:56:23;;;;;;;21.50;17.55;;;;;;;11.88;92.69;101115.91;5043154;28;20028;-57
2022/10/20 07:58:48;;;;;;;21.88;17.15;;;;;;;11.94;92.51;101120.88;5050780;28;20099;-57
2022/10/20 08:01:16;;;;;;;27.05;17.42;;;;;;;11.97;92.65;101115.34;5050076;28;20025;-57
2022/10/20 08:03:42;;;;;;;21.98;17.15;;;;;;;12.01;92.62;101113.31;5053371;28;20552;-57
2022/10/20 08:06:07;;;;;;;25.77;16.98;;;;;;;12.09;91.87;101104.78;5052732;28;20028;-57
2022/10/20 08:08:33;;;;;;;24.73;16.90;;;;;;;12.14;92.24;101105.38;5086172;28;20040;-57
2022/10/20 08:11:00;;;;;;;23.10;17.02;;;;;;;12.14;91.56;101113.34;5053495;28;20519;-57
2022/10/20 08:13:27;;;;;;;27.75;17.90;;;;;;;12.20;91.25;101110.28;5052181;28;20032;-57
2022/10/20 08:15:53;;;;;;;23.10;17.83;;;;;;;12.27;91.54;101107.13;5034734;28;20022;-57
2022/10/20 08:18:18;;;;;;;22.05;16.67;;;;;;;12.33;91.35;101110.34;5041315;28;20032;-57
2022/10/20 08:20:47;;;;;;;20.10;15.73;;;;;;;12.34;90.78;101094.22;5050141;28;20029;-57
2022/10/20 08:23:13;;;;;;;23.60;17.90;;;;;;;12.33;90.73;101097.88;5048939;28;20392;-57
2022/10/20 08:25:42;;;;;;;20.67;16.77;;;;;;;12.38;90.66;101102.88;5053537;28;20031;-56
2022/10/20 08:28:08;;;;;;;22.83;16.70;;;;;;;12.37;90.93;101102.03;5053788;28;20021;-57
2022/10/20 08:30:34;;;;;;;21.13;16.52;;;;;;;12.35;91.60;101089.75;5049347;28;20129;-57
2022/10/20 08:33:00;;;;;;;21.75;16.15;;;;;;;12.46;90.90;101106.75;5040444;28;20071;-56
2022/10/20 08:35:28;;;;;;;20.60;15.85;;;;;;;12.47;90.37;101107.59;5051134;28;20021;-57
2022/10/20 08:37:53;;;;;;;22.98;16.42;;;;;;;12.51;90.81;101117.13;5049958;28;20025;-57
2022/10/20 08:40:23;;;;;;;22.17;16.17;;;;;;;12.54;91.03;101110.72;5053073;28;20113;-56
2022/10/20 08:42:49;;;;;;;20.83;15.60;;;;;;;12.65;90.16;101113.53;5043616;28;20029;-56
2022/10/20 08:45:18;;;;;;;21.27;16.13;;;;;;;12.77;90.51;101096.69;5044424;28;20395;-56
2022/10/20 08:47:45;;;;;;;21.58;16.50;;;;;;;12.85;89.60;101106.81;5048431;28;20384;-56
2022/10/20 08:50:15;;;;;;;19.73;15.30;;;;;;;12.91;89.32;101099.28;5041315;28;20052;-56
2022/10/20 08:52:41;;;;;;;25.10;15.80;;;;;;;12.90;88.63;101086.00;5043541;28;20029;-56
2022/10/20 08:55:25;;;;;;;20.00;15.52;;;;;;;13.02;89.07;101086.97;5034531;28;20041;-56
2022/10/20 08:57:51;;;;;;;18.60;15.18;;;;;;;13.13;88.22;101079.94;5033003;28;20025;-56
2022/10/20 09:00:21;;;;;;;17.35;14.15;;;;;;;13.18;88.17;101074.28;5065368;28;20040;-56
2022/10/20 09:02:50;;;;;;;19.67;14.75;;;;;;;13.19;88.21;101076.81;5065574;28;20044;-56
2022/10/20 09:05:21;;;;;;;18.65;15.15;;;;;;;13.23;88.26;101082.78;5033252;28;20403;-56
2022/10/20 09:07:50;;;;;;;19.60;16.10;;;;;;;13.21;87.91;101075.84;5032062;28;20512;-56
2022/10/20 09:10:29;;;;;;;20.30;14.43;;;;;;;13.31;87.85;101075.13;5048178;28;20037;-56
2022/10/20 09:12:55;;;;;;;20.02;14.20;;;;;;;13.35;87.88;101075.75;5033395;28;20024;-56
2022/10/20 09:15:21;;;;;;;28.40;14.07;;;;;;;13.40;88.08;101073.63;5033384;28;20037;-56
2022/10/20 09:17:54;;;;;;;22.48;14.93;;;;;;;13.42;88.27;101085.06;5033707;28;20017;-56
2022/10/20 09:20:32;;;;;;;22.00;14.68;;;;;;;13.44;88.27;101083.13;5033034;28;20480;-56
2022/10/20 09:22:57;;;;;;;19.67;14.50;;;;;;;13.46;88.42;101085.69;5033324;28;20404;-56
2022/10/20 09:25:26;;;;;;;19.85;15.00;;;;;;;13.43;87.73;101080.56;5065308;28;20026;-56
2022/10/20 09:27:54;;;;;;;19.85;14.27;;;;;;;13.39;88.28;101075.44;5033081;28;20017;-56
2022/10/20 09:30:19;;;;;;;18.88;13.35;;;;;;;13.42;88.39;101076.22;5031881;28;20029;-56
2022/10/20 09:32:45;;;;;;;20.33;13.75;;;;;;;13.44;88.52;101080.44;5038147;28;20115;-56
2022/10/20 09:35:14;;;;;;;20.95;14.68;;;;;;;13.46;89.13;101069.66;5053087;28;20487;-57
2022/10/20 09:37:40;;;;;;;21.58;14.43;;;;;;;13.46;88.76;101083.03;5053015;28;20099;-57
2022/10/20 09:40:14;;;;;;;21.08;14.35;;;;;;;13.41;89.42;101083.34;5053130;28;20025;-56
2022/10/20 09:42:48;;;;;;;27.25;14.05;;;;;;;13.43;89.62;101077.91;5052685;28;20058;-56
2022/10/20 09:45:28;;;;;;;19.00;14.65;;;;;;;13.49;89.84;101093.50;5051206;28;20484;-56
2022/10/20 09:48:36;;;;;;;18.10;13.30;;;;;;;13.47;89.90;101104.31;5052298;28;20463;-56
2022/10/20 09:51:05;;;;;;;16.45;13.32;;;;;;;13.47;89.72;101088.28;5051813;28;20064;-56
2022/10/20 09:53:35;;;;;;;;;;;;;;;13.51;89.50;101073.72;5053104;28;20100;-57
2022/10/20 09:56:03;;;;;;;17.48;14.10;;;;;;;13.49;90.09;101066.78;5052322;28;20272;-56
2022/10/20 09:58:37;;;;;;;18.30;13.93;;;;;;;13.49;90.06;101064.94;5052321;28;20029;-56
2022/10/20 10:01:11;;;;;;;19.60;14.57;;;;;;;13.47;90.18;101069.56;5052439;28;20467;-57
2022/10/20 10:03:45;;;;;;;17.10;15.30;;;;;;;13.48;91.35;101073.09;5052524;28;20021;-56
2022/10/20 10:06:25;;;;;;;21.00;14.63;;;;;;;13.47;91.84;101069.56;5051987;28;20396;-57
2022/10/20 10:08:51;;;;;;;18.90;14.18;;;;;;;13.45;92.95;101071.50;5052086;28;20043;-56
2022/10/20 10:11:20;;;;;;;21.23;15.50;;;;;;;13.42;94.04;101068.19;5052102;28;20104;-57
2022/10/20 10:13:48;;;;;;;19.65;15.98;;;;;;;13.40;94.09;101073.63;5083942;28;20120;-56
2022/10/20 10:16:18;;;;;;;21.27;15.70;;;;;;;13.34;95.57;101066.91;5052414;28;20096;-57
2022/10/20 10:18:53;;;;;;;23.73;16.33;;;;;;;13.36;96.00;101073.00;5051849;28;20016;-56
2022/10/20 10:21:19;;;;;;;24.80;16.05;;;;;;;13.33;96.76;101061.69;5052133;28;20107;-56
2022/10/20 10:24:00;;;;;;;19.25;16.20;;;;;;;13.32;98.06;101058.13;5051827;28;20099;-56
2022/10/20 10:26:52;;;;;;;25.90;17.55;;;;;;;13.30;98.08;101054.75;5051898;28;20013;-56
2022/10/20 10:29:30;;;;;;;21.63;17.40;;;;;;;13.28;99.83;101045.97;5051701;28;20069;-56
2022/10/20 10:32:20;;;;;;;26.95;17.50;;;;;;;13.25;100.00;101045.31;5051854;28;20086;-56
2022/10/20 10:35:14;;;;;;;26.38;18.52;;;;;;;13.27;100.00;101036.25;5051546;28;20428;-56
2022/10/20 10:37:42;;;;;;;26.88;18.92;;;;;;;13.25;100.00;101034.63;5049520;28;20479;-57
2022/10/20 10:40:15;;;;;;;22.05;18.15;;;;;;;13.26;100.00;101023.84;5051588;28;20040;-56
2022/10/20 10:42:59;;;;;;;32.85;20.55;;;;;;;13.26;100.00;101039.03;5051934;28;20024;-57
2022/10/20 10:45:38;;;;;;;23.08;17.20;;;;;;;13.28;100.00;101042.44;5051712;28;20024;-57
2022/10/20 10:48:11;;;;;;;25.60;18.38;;;;;;;13.23;100.00;101039.22;5051769;28;20021;-56
2022/10/20 10:50:59;;;;;;;23.60;18.90;;;;;;;13.24;100.00;101052.47;5051262;28;20044;-57
2022/10/20 10:53:40;;;;;;;24.48;18.90;;;;;;;13.25;100.00;101051.53;5047846;28;20032;-57
2022/10/20 10:56:08;;;;;;;26.42;18.48;;;;;;;13.24;100.00;101059.63;5050341;28;20373;-57
2022/10/20 10:58:44;;;;;;;26.80;19.08;;;;;;;13.25;100.00;101034.63;5041660;28;20480;-57
2022/10/20 11:01:20;;;;;;;26.15;19.50;;;;;;;13.22;100.00;101045.53;5029901;28;20021;-57
2022/10/20 11:03:48;;;;;;;28.55;20.27;;;;;;;13.21;100.00;101036.66;5032404;28;20108;-57
2022/10/20 11:06:32;;;;;;;24.70;19.77;;;;;;;13.26;100.00;101033.69;5031425;28;20415;-57
2022/10/20 11:09:21;;;;;;;24.92;20.23;;;;;;;13.26;100.00;101004.31;5030146;28;21067;-57
2022/10/20 11:11:59;;;;;;;27.13;21.13;;;;;;;13.23;100.00;101015.19;5049626;28;20040;-57
2022/10/20 11:14:59;;;;;;;26.52;21.25;;;;;;;13.25;100.00;101007.91;5049796;28;20091;-57
2022/10/20 11:17:44;;;;;;;27.70;20.98;;;;;;;13.25;100.00;101016.81;5046231;28;20029;-57
2022/10/20 11:20:48;;;;;;;28.38;21.38;;;;;;;13.26;100.00;101007.81;5049226;28;20032;-57
2022/10/20 11:23:45;;;;;;;33.33;20.65;;;;;;;13.30;100.00;101005.81;5050197;28;20124;-57